createdAt,value
2022-11-25T00:01:25.563Z,9.30
2022-11-25T00:03:55.658Z,7.82
2022-11-25T00:06:27.261Z,8.50
2022-11-25T00:08:57.871Z,8.85
2022-11-25T00:11:25.974Z,8.68
2022-11-25T00:13:53.990Z,6.10
2022-11-25T00:16:22.685Z,6.30
2022-11-25T00:21:36.978Z,9.07
2022-11-25T00:24:07.330Z,7.43
2022-11-25T00:26:36.928Z,6.43
2022-11-25T00:29:07.297Z,7.10
2022-11-25T00:31:38.597Z,7.93
2022-11-25T00:34:06.100Z,7.60
2022-11-25T00:36:36.334Z,8.45
2022-11-25T00:39:15.533Z,6.43
2022-11-25T00:42:03.560Z,7.25
2022-11-25T00:50:03.925Z,7.07
2022-11-25T00:52:31.426Z,7.10
2022-11-25T00:54:59.009Z,6.78
2022-11-25T00:57:26.567Z,9.15
2022-11-25T00:59:54.125Z,7.82
2022-11-25T01:02:22.834Z,7.93
2022-11-25T01:05:09.087Z,7.55
2022-11-25T01:07:36.620Z,7.22
2022-11-25T01:10:04.144Z,7.30
2022-11-25T01:12:31.833Z,7.35
2022-11-25T01:14:59.226Z,6.63
2022-11-25T01:17:33.989Z,7.32
2022-11-25T01:20:01.686Z,6.65
2022-11-25T01:22:29.946Z,7.00
2022-11-25T01:24:57.509Z,5.78
2022-11-25T01:27:24.993Z,5.80
2022-11-25T01:29:52.734Z,5.35
2022-11-25T01:32:20.106Z,6.40
2022-11-25T01:34:47.791Z,6.97
2022-11-25T01:37:15.307Z,6.18
2022-11-25T01:39:44.343Z,4.88
2022-11-25T01:42:11.817Z,5.05
2022-11-25T01:44:42.672Z,4.50
2022-11-25T01:47:15.318Z,4.13
2022-11-25T01:49:50.038Z,4.60
2022-11-25T01:52:24.434Z,4.60
2022-11-25T01:55:01.305Z,3.97
2022-11-25T01:57:53.736Z,4.50
2022-11-25T02:00:22.049Z,4.22
2022-11-25T02:02:53.539Z,5.55
2022-11-25T02:05:42.690Z,4.72
2022-11-25T02:08:11.158Z,5.03
2022-11-25T02:10:39.869Z,4.22
2022-11-25T02:13:07.402Z,4.22
2022-11-25T02:15:37.132Z,3.70
2022-11-25T02:18:05.406Z,3.85
2022-11-25T02:20:32.928Z,4.47
2022-11-25T02:23:26.683Z,4.18
2022-11-25T02:25:56.095Z,3.30
2022-11-25T02:28:26.937Z,4.60
2022-11-25T02:30:55.015Z,4.25
2022-11-25T02:33:24.153Z,3.67
2022-11-25T02:35:56.573Z,3.28
2022-11-25T02:38:58.229Z,3.80
2022-11-25T02:41:37.745Z,3.50
2022-11-25T02:44:06.899Z,3.28
2022-11-25T02:46:34.763Z,3.38
2022-11-25T02:51:44.763Z,3.20
2022-11-25T02:54:14.362Z,3.05
2022-11-25T02:56:42.116Z,3.05
2022-11-25T02:59:09.883Z,3.38
2022-11-25T03:01:40.986Z,3.00
2022-11-25T03:04:10.590Z,3.47
2022-11-25T03:06:38.355Z,3.88
2022-11-25T03:09:07.413Z,4.25
2022-11-25T03:11:57.336Z,3.70
2022-11-25T03:14:25.374Z,3.75
2022-11-25T03:16:52.845Z,3.90
2022-11-25T03:19:20.968Z,3.60
2022-11-25T03:21:48.387Z,4.32
2022-11-25T03:24:15.904Z,4.38
2022-11-25T03:26:43.368Z,3.72
2022-11-25T03:29:10.959Z,4.60
2022-11-25T03:31:38.452Z,5.20
2022-11-25T03:34:08.912Z,5.47
2022-11-25T03:36:36.482Z,5.45
2022-11-25T03:39:04.516Z,4.80
2022-11-25T03:41:34.796Z,5.68
2022-11-25T03:44:02.859Z,5.57
2022-11-25T03:46:30.341Z,6.00
2022-11-25T03:48:59.266Z,4.50
2022-11-25T03:51:26.726Z,4.82
2022-11-25T03:53:54.732Z,3.50
2022-11-25T03:56:24.170Z,4.03
2022-11-25T03:58:52.118Z,4.15
2022-11-25T04:01:20.780Z,3.60
2022-11-25T04:03:48.675Z,2.95
2022-11-25T04:06:16.456Z,4.38
2022-11-25T04:08:44.040Z,4.88
2022-11-25T04:11:12.364Z,5.22
2022-11-25T04:13:44.246Z,5.75
2022-11-25T04:16:24.093Z,5.22
2022-11-25T04:18:53.149Z,3.63
2022-11-25T04:21:20.585Z,3.35
2022-11-25T04:23:50.752Z,3.45
2022-11-25T04:26:18.833Z,3.25
2022-11-25T04:28:46.412Z,3.28
2022-11-25T04:31:14.383Z,4.68
2022-11-25T04:33:46.028Z,4.93
2022-11-25T04:36:17.757Z,4.18
2022-11-25T04:38:45.430Z,3.55
2022-11-25T04:41:13.429Z,3.33
2022-11-25T04:43:44.051Z,4.30
2022-11-25T04:46:20.025Z,7.25
2022-11-25T04:48:50.670Z,8.88
2022-11-25T04:51:19.496Z,9.38
2022-11-25T04:53:50.114Z,6.13
2022-11-25T04:59:27.547Z,4.47
2022-11-25T05:01:55.213Z,3.60
2022-11-25T05:04:43.676Z,4.50
2022-11-25T05:07:13.951Z,7.63
2022-11-25T05:09:58.515Z,6.57
2022-11-25T05:12:49.558Z,5.68
2022-11-25T05:15:26.625Z,4.38
2022-11-25T05:17:55.471Z,4.60
2022-11-25T05:20:39.905Z,3.90
2022-11-25T05:25:36.352Z,3.88
2022-11-25T05:28:22.831Z,3.63
2022-11-25T05:30:50.636Z,3.38
2022-11-25T05:33:18.244Z,3.20
2022-11-25T05:35:53.494Z,3.00
2022-11-25T05:38:21.112Z,3.53
2022-11-25T05:40:48.657Z,2.83
2022-11-25T05:43:18.571Z,3.45
2022-11-25T05:45:46.164Z,2.53
2022-11-25T05:48:14.744Z,2.78
2022-11-25T05:50:43.031Z,2.88
2022-11-25T05:53:17.776Z,2.60
2022-11-25T05:56:01.897Z,1.50
2022-11-25T05:59:01.391Z,2.85
2022-11-25T06:01:42.098Z,2.65
2022-11-25T06:04:10.557Z,2.28
2022-11-25T06:06:38.420Z,4.82
2022-11-25T06:09:06.057Z,4.70
2022-11-25T06:11:34.415Z,3.45
2022-11-25T06:14:02.187Z,3.50
2022-11-25T06:16:30.203Z,3.50
2022-11-25T06:19:21.179Z,4.05
2022-11-25T06:21:49.018Z,4.30
2022-11-25T06:24:17.106Z,5.22
2022-11-25T06:26:46.290Z,5.13
2022-11-25T06:29:13.772Z,4.50
2022-11-25T06:34:47.588Z,4.13
2022-11-25T06:37:27.545Z,3.28
2022-11-25T06:39:55.137Z,3.28
2022-11-25T06:42:22.591Z,3.20
2022-11-25T06:44:50.013Z,3.70
2022-11-25T06:47:17.656Z,3.28
2022-11-25T06:49:45.204Z,2.92
2022-11-25T06:52:12.653Z,3.40
2022-11-25T06:57:22.955Z,3.10
2022-11-25T06:59:51.656Z,3.00
2022-11-25T07:02:19.722Z,3.20
2022-11-25T07:04:47.179Z,5.25
2022-11-25T07:07:14.710Z,6.07
2022-11-25T07:09:42.214Z,5.65
2022-11-25T07:12:09.741Z,6.78
2022-11-25T07:14:37.400Z,7.45
2022-11-25T07:17:11.552Z,5.40
2022-11-25T07:19:41.345Z,5.22
2022-11-25T07:22:09.130Z,2.78
2022-11-25T07:24:36.880Z,2.65
2022-11-25T07:27:06.781Z,3.38
2022-11-25T07:29:54.575Z,4.10
2022-11-25T07:32:24.348Z,3.65
2022-11-25T07:34:52.401Z,3.13
2022-11-25T07:37:20.578Z,2.65
2022-11-25T07:39:49.331Z,2.22
2022-11-25T07:42:18.426Z,2.42
2022-11-25T07:44:46.048Z,2.33
2022-11-25T07:47:40.883Z,2.80
2022-11-25T07:50:09.791Z,2.90
2022-11-25T07:52:41.212Z,2.30
2022-11-25T07:55:09.897Z,2.80
2022-11-25T07:57:37.588Z,2.30
2022-11-25T08:00:06.434Z,3.20
2022-11-25T08:02:39.429Z,3.15
2022-11-25T08:05:07.723Z,4.10
2022-11-25T08:07:36.814Z,4.63
2022-11-25T08:10:05.198Z,3.92
2022-11-25T08:12:33.926Z,3.17
2022-11-25T08:15:01.892Z,3.80
2022-11-25T08:17:30.791Z,3.03
2022-11-25T08:19:58.449Z,2.40
2022-11-25T08:22:26.328Z,2.15
2022-11-25T08:24:53.771Z,2.53
2022-11-25T08:27:21.379Z,2.80
2022-11-25T08:30:02.590Z,2.50
2022-11-25T08:32:31.764Z,1.90
2022-11-25T08:34:59.497Z,2.22
2022-11-25T08:37:26.994Z,2.15
2022-11-25T08:39:54.781Z,2.15
2022-11-25T08:42:22.605Z,2.00
2022-11-25T08:44:55.682Z,1.77
2022-11-25T08:47:24.600Z,1.30
2022-11-25T08:49:53.291Z,1.77
2022-11-25T08:52:22.368Z,1.98
2022-11-25T08:54:50.112Z,1.67
2022-11-25T08:57:17.660Z,1.75
2022-11-25T08:59:45.141Z,2.08
2022-11-25T09:02:16.343Z,2.03
2022-11-25T09:04:44.410Z,2.10
2022-11-25T09:07:12.193Z,2.17
2022-11-25T09:09:39.909Z,2.47
2022-11-25T09:12:08.177Z,2.70
2022-11-25T09:14:35.815Z,2.83
2022-11-25T09:17:08.574Z,2.63
2022-11-25T09:19:36.450Z,2.60
2022-11-25T09:22:04.563Z,2.00
2022-11-25T09:24:32.308Z,2.47
2022-11-25T09:26:59.786Z,2.20
2022-11-25T09:29:28.485Z,2.03
2022-11-25T09:31:56.016Z,1.80
2022-11-25T09:34:23.781Z,2.17
2022-11-25T09:36:51.985Z,1.75
2022-11-25T09:39:19.748Z,2.05
2022-11-25T09:42:21.411Z,1.90
2022-11-25T09:45:44.217Z,2.28
2022-11-25T09:48:36.878Z,2.00
2022-11-25T09:57:44.442Z,2.03
2022-11-25T10:00:17.691Z,2.10
2022-11-25T10:02:55.761Z,2.20
2022-11-25T10:05:31.298Z,2.03
2022-11-25T10:08:08.894Z,2.20
2022-11-25T10:10:48.840Z,2.33
2022-11-25T10:13:29.671Z,1.95
2022-11-25T10:16:04.013Z,2.28
2022-11-25T10:18:42.834Z,2.88
2022-11-25T10:21:14.536Z,2.13
2022-11-25T10:23:42.434Z,1.92
2022-11-25T10:26:16.515Z,2.70
2022-11-25T10:28:57.625Z,3.05
2022-11-25T10:31:36.822Z,2.53
2022-11-25T10:34:33.477Z,3.00
2022-11-25T10:37:07.067Z,2.40
2022-11-25T10:39:35.951Z,2.08
2022-11-25T10:42:10.761Z,2.60
2022-11-25T10:44:40.721Z,2.30
2022-11-25T10:47:21.577Z,2.58
2022-11-25T10:50:09.763Z,2.38
2022-11-25T10:52:57.695Z,2.33
2022-11-25T10:57:55.602Z,2.97
2022-11-25T11:06:41.619Z,2.30
2022-11-25T11:09:33.929Z,2.70
2022-11-25T11:12:29.172Z,2.50
2022-11-25T11:15:21.829Z,2.85
2022-11-25T11:20:35.307Z,2.53
2022-11-25T11:23:09.630Z,3.38
2022-11-25T11:25:40.452Z,2.83
2022-11-25T11:28:26.156Z,3.45
2022-11-25T11:31:01.313Z,3.00
2022-11-25T11:33:33.406Z,2.88
2022-11-25T11:36:15.615Z,3.08
2022-11-25T11:38:58.101Z,4.35
2022-11-25T11:41:46.373Z,6.53
2022-11-25T11:44:34.432Z,8.70
2022-11-25T11:47:21.321Z,6.07
2022-11-25T11:50:04.174Z,5.70
2022-11-25T11:52:41.269Z,4.63
2022-11-25T11:56:00.277Z,4.40
2022-11-25T11:58:51.027Z,3.50
2022-11-25T12:01:56.525Z,4.03
2022-11-25T12:04:36.814Z,3.58
2022-11-25T12:07:45.643Z,3.42
2022-11-25T12:10:24.759Z,3.35
2022-11-25T12:13:16.002Z,3.20
2022-11-25T12:15:53.974Z,4.18
2022-11-25T12:18:54.837Z,5.03
2022-11-25T12:21:36.330Z,5.13
2022-11-25T12:24:20.436Z,5.38
2022-11-25T12:27:06.529Z,6.95
2022-11-25T12:29:45.943Z,4.03
2022-11-25T12:32:38.468Z,3.80
2022-11-25T12:35:12.012Z,3.35
2022-11-25T12:37:45.457Z,3.22
2022-11-25T12:40:19.115Z,3.03
2022-11-25T12:42:49.390Z,2.97
2022-11-25T12:45:25.276Z,4.30
2022-11-25T12:47:54.070Z,3.20
2022-11-25T12:51:07.128Z,3.50
2022-11-25T12:53:42.589Z,4.57
2022-11-25T12:56:20.700Z,5.35
2022-11-25T12:59:00.633Z,5.45
2022-11-25T13:01:57.318Z,5.20
2022-11-25T13:05:32.957Z,5.88
2022-11-25T13:08:15.630Z,3.05
2022-11-25T13:10:43.359Z,2.40
2022-11-25T13:13:32.679Z,1.65
2022-11-25T13:16:05.530Z,2.17
2022-11-25T13:18:34.656Z,2.40
2022-11-25T13:21:14.215Z,3.00
2022-11-25T13:23:58.963Z,6.32
2022-11-25T13:26:29.596Z,5.03
2022-11-25T13:28:57.597Z,4.60
2022-11-25T13:31:34.106Z,3.45
2022-11-25T13:34:09.720Z,3.88
2022-11-25T13:36:46.427Z,5.15
2022-11-25T13:39:16.655Z,7.25
2022-11-25T13:41:59.173Z,5.03
2022-11-25T13:44:35.383Z,6.45
2022-11-25T13:47:28.503Z,4.97
2022-11-25T13:50:02.687Z,4.63
2022-11-25T13:52:41.729Z,5.40
2022-11-25T13:55:24.657Z,5.45
2022-11-25T14:01:00.171Z,5.43
2022-11-25T14:03:27.834Z,2.45
2022-11-25T14:06:10.549Z,2.95
2022-11-25T14:08:43.747Z,3.75
2022-11-25T14:11:11.291Z,3.55
2022-11-25T14:13:54.018Z,5.05
2022-11-25T14:16:36.087Z,4.45
2022-11-25T14:19:49.952Z,6.28
2022-11-25T14:22:43.325Z,6.43
2022-11-25T14:25:22.662Z,6.97
2022-11-25T14:28:03.460Z,4.65
2022-11-25T14:30:33.073Z,5.03
2022-11-25T14:33:04.746Z,5.93
2022-11-25T14:35:52.679Z,5.82
2022-11-25T14:38:25.858Z,4.75
2022-11-25T14:41:00.917Z,3.58
2022-11-25T14:46:25.865Z,3.78
2022-11-25T14:48:59.162Z,2.13
2022-11-25T14:51:28.721Z,2.72
2022-11-25T14:53:58.066Z,2.60
2022-11-25T14:56:35.729Z,3.30
2022-11-25T14:59:03.765Z,3.42
2022-11-25T15:01:34.129Z,3.08
2022-11-25T15:04:16.982Z,2.83
2022-11-25T15:06:53.996Z,1.73
2022-11-25T15:09:27.761Z,4.43
2022-11-25T15:12:01.650Z,4.40
2022-11-25T15:14:36.029Z,3.40
2022-11-25T15:17:26.129Z,2.78
2022-11-25T15:19:56.275Z,2.70
2022-11-25T15:22:24.783Z,2.42
2022-11-25T15:24:56.213Z,1.98
2022-11-25T15:27:28.070Z,2.35
2022-11-25T15:29:57.949Z,1.92
2022-11-25T15:32:28.195Z,2.50
2022-11-25T15:34:58.637Z,2.40
2022-11-25T15:37:26.866Z,2.05
2022-11-25T15:40:33.532Z,2.03
2022-11-25T15:43:04.372Z,2.17
2022-11-25T15:45:45.933Z,2.08
2022-11-25T15:48:34.138Z,2.42
2022-11-25T15:51:23.719Z,2.80
2022-11-25T15:53:55.392Z,3.00
2022-11-25T15:56:26.795Z,2.88
2022-11-25T15:59:00.161Z,2.47
2022-11-25T16:01:30.366Z,1.92
2022-11-25T16:04:20.151Z,2.05
2022-11-25T16:06:56.541Z,1.40
2022-11-25T16:09:27.683Z,1.73
2022-11-25T16:12:06.201Z,2.00
2022-11-25T16:14:37.109Z,2.13
2022-11-25T16:17:17.959Z,1.80
2022-11-25T16:19:48.395Z,2.03
2022-11-25T16:25:15.577Z,2.13
2022-11-25T16:27:44.568Z,2.30
2022-11-25T16:30:20.540Z,1.80
2022-11-25T16:32:47.932Z,2.38
2022-11-25T16:35:24.668Z,2.80
2022-11-25T16:37:58.581Z,2.60
2022-11-25T16:40:28.112Z,2.80
2022-11-25T16:43:23.927Z,2.95
2022-11-25T16:45:54.092Z,3.72
2022-11-25T16:48:23.764Z,3.47
2022-11-25T16:50:51.916Z,2.47
2022-11-25T16:53:19.451Z,2.05
2022-11-25T16:55:49.746Z,2.20
2022-11-25T16:58:24.591Z,2.03
2022-11-25T17:00:55.217Z,2.65
2022-11-25T17:03:26.578Z,2.10
2022-11-25T17:05:55.436Z,2.00
2022-11-25T17:10:50.706Z,2.20
2022-11-25T17:13:26.135Z,2.13
2022-11-25T17:18:51.065Z,3.13
2022-11-25T17:24:12.458Z,2.40
2022-11-25T17:26:43.539Z,2.33
2022-11-25T17:29:17.940Z,2.55
2022-11-25T17:31:46.620Z,2.20
2022-11-25T17:36:45.065Z,2.42
2022-11-25T17:39:14.136Z,3.15
2022-11-25T17:41:45.801Z,3.50
2022-11-25T17:44:22.134Z,2.88
2022-11-25T17:46:49.714Z,4.00
2022-11-25T17:49:33.761Z,3.63
2022-11-25T17:52:02.041Z,2.67
2022-11-25T17:54:29.532Z,1.95
2022-11-25T17:56:57.562Z,2.83
2022-11-25T17:59:28.789Z,4.10
2022-11-25T18:01:56.552Z,6.07
2022-11-25T18:04:31.604Z,6.10
2022-11-25T18:06:59.094Z,7.35
2022-11-25T18:09:26.642Z,6.00
2022-11-25T18:11:58.291Z,6.32
2022-11-25T18:14:33.123Z,5.55
2022-11-25T18:17:16.223Z,3.45
2022-11-25T18:19:43.870Z,4.35
2022-11-25T18:22:17.633Z,4.03
2022-11-25T18:24:45.808Z,4.38
2022-11-25T18:27:39.447Z,3.15
2022-11-25T18:30:13.368Z,3.33
2022-11-25T18:32:44.642Z,3.85
2022-11-25T18:35:17.961Z,3.35
2022-11-25T18:37:46.401Z,3.50
2022-11-25T18:40:15.333Z,5.07
2022-11-25T18:42:45.635Z,4.50
2022-11-25T18:45:29.290Z,4.25
2022-11-25T18:47:57.100Z,3.60
2022-11-25T18:50:26.401Z,3.60
2022-11-25T18:52:54.028Z,5.22
2022-11-25T18:55:23.708Z,5.28
2022-11-25T18:57:52.341Z,5.80
2022-11-25T19:00:38.263Z,5.75
2022-11-25T19:03:14.025Z,6.93
2022-11-25T19:05:41.599Z,7.20
2022-11-25T19:08:09.055Z,7.55
2022-11-25T19:10:37.909Z,6.22
2022-11-25T19:13:14.178Z,6.75
2022-11-25T19:15:43.367Z,6.68
2022-11-25T19:18:14.444Z,5.43
2022-11-25T19:20:41.998Z,6.13
2022-11-25T19:23:18.009Z,6.43
2022-11-25T19:25:46.086Z,4.07
2022-11-25T19:28:15.295Z,5.28
2022-11-25T19:30:44.122Z,6.07
2022-11-25T19:33:28.152Z,6.25
2022-11-25T19:35:55.740Z,7.55
2022-11-25T19:38:27.269Z,6.63
2022-11-25T19:40:56.288Z,4.22
2022-11-25T19:43:28.402Z,4.47
2022-11-25T19:45:57.499Z,3.60
2022-11-25T19:48:28.536Z,3.60
2022-11-25T19:51:04.961Z,3.35
2022-11-25T19:53:34.364Z,3.97
2022-11-25T19:56:04.816Z,3.97
2022-11-25T19:58:32.628Z,3.67
2022-11-25T20:01:04.774Z,4.60
2022-11-25T20:03:32.457Z,6.10
2022-11-25T20:06:00.146Z,8.05
2022-11-25T20:08:29.159Z,6.97
2022-11-25T20:10:57.773Z,5.40
2022-11-25T20:13:26.392Z,4.40
2022-11-25T20:15:55.846Z,3.08
2022-11-25T20:18:26.525Z,4.40
2022-11-25T20:21:00.888Z,4.05
2022-11-25T20:23:38.609Z,2.75
2022-11-25T20:26:17.156Z,2.10
2022-11-25T20:28:45.518Z,3.25
2022-11-25T20:31:14.233Z,2.78
2022-11-25T20:33:42.266Z,3.80
2022-11-25T20:36:20.223Z,2.70
2022-11-25T20:38:54.997Z,2.80
2022-11-25T20:41:27.740Z,2.90
2022-11-25T20:43:56.866Z,3.35
2022-11-25T20:46:30.307Z,3.35
2022-11-25T20:49:00.891Z,3.42
2022-11-25T20:51:28.993Z,2.60
2022-11-25T20:53:58.314Z,3.60
2022-11-25T20:56:27.734Z,2.92
2022-11-25T20:58:55.854Z,5.57
2022-11-25T21:01:23.654Z,7.93
2022-11-25T21:03:51.268Z,7.32
2022-11-25T21:06:30.253Z,4.85
2022-11-25T21:09:00.090Z,3.80
2022-11-25T21:11:28.435Z,3.80
2022-11-25T21:13:55.923Z,3.80
2022-11-25T21:16:23.416Z,7.22
2022-11-25T21:18:51.023Z,6.43
2022-11-25T21:21:32.517Z,5.10
2022-11-25T21:24:08.240Z,3.72
2022-11-25T21:26:35.753Z,4.18
2022-11-25T21:29:03.187Z,3.00
2022-11-25T21:31:30.810Z,2.42
2022-11-25T21:33:59.488Z,3.30
2022-11-25T21:36:31.452Z,4.78
2022-11-25T21:39:08.832Z,4.85
2022-11-25T21:41:36.684Z,5.40
2022-11-25T21:44:06.880Z,4.63
2022-11-25T21:46:34.792Z,2.08
2022-11-25T21:49:02.205Z,1.70
2022-11-25T21:51:29.983Z,1.95
2022-11-25T21:53:57.566Z,2.58
2022-11-25T21:56:31.400Z,3.00
2022-11-25T21:59:01.239Z,3.80
2022-11-25T22:01:29.400Z,4.03
2022-11-25T22:03:57.174Z,3.05
2022-11-25T22:06:27.563Z,1.70
2022-11-25T22:08:56.186Z,1.55
2022-11-25T22:11:35.902Z,0.95
2022-11-25T22:14:13.253Z,0.98
2022-11-25T22:16:40.915Z,1.48
2022-11-25T22:19:18.540Z,2.67
2022-11-25T22:21:46.099Z,2.88
2022-11-25T22:24:15.827Z,5.75
2022-11-25T22:26:45.935Z,3.10
2022-11-25T22:29:21.853Z,2.78
2022-11-25T22:31:50.267Z,2.53
2022-11-25T22:34:21.397Z,3.38
2022-11-25T22:36:50.098Z,3.92
2022-11-25T22:39:25.557Z,2.35
2022-11-25T22:41:56.602Z,4.22
2022-11-25T22:44:36.172Z,3.20
2022-11-25T22:47:04.613Z,3.30
2022-11-25T22:49:31.941Z,3.22
2022-11-25T22:52:00.431Z,2.83
2022-11-25T22:54:27.869Z,3.00
2022-11-25T22:56:56.167Z,2.90
2022-11-25T22:59:23.594Z,4.80
2022-11-25T23:01:51.234Z,3.33
2022-11-25T23:04:20.416Z,3.30
2022-11-25T23:06:48.614Z,2.58
2022-11-25T23:09:20.209Z,2.47
2022-11-25T23:11:48.305Z,2.85
2022-11-25T23:14:15.869Z,4.18
2022-11-25T23:16:43.372Z,6.18
2022-11-25T23:19:16.847Z,3.42
2022-11-25T23:21:45.602Z,2.50
2022-11-25T23:24:16.741Z,1.70
2022-11-25T23:26:44.694Z,2.13
2022-11-25T23:29:12.152Z,2.13
2022-11-25T23:31:40.225Z,2.10
2022-11-25T23:34:08.541Z,1.85
2022-11-25T23:36:47.638Z,2.10
2022-11-25T23:39:20.382Z,1.40
2022-11-25T23:41:49.083Z,1.80
2022-11-25T23:44:25.844Z,2.65
2022-11-25T23:46:55.426Z,2.20
2022-11-25T23:49:33.714Z,1.42
2022-11-25T23:52:07.779Z,1.33
2022-11-25T23:54:40.959Z,1.20
2022-11-25T23:57:31.665Z,1.25
2022-11-25T23:59:59.329Z,1.50
